Time;durP1;ratioP1;P1;durP2;ratioP2;P2;SDS_P1;SDS_P2;PMS_P1;PMS_P2;Temp;Humidity;BMP_temperature;BMP_pressure;BME280_temperature;BME280_humidity;BME280_pressure;Samples;Min_cycle;Max_cycle;Signal;HPM_P1;HPM_P2
2020/12/27 00:00:39;;;;;;;0.82;0.82;;;2.70;99.90;;;;;;4384350;32;20078;-74
2020/12/27 00:03:05;;;;;;;0.40;0.40;;;2.80;99.90;;;;;;4383418;32;20166;-74
2020/12/27 00:05:30;;;;;;;0.50;0.50;;;2.80;99.90;;;;;;4386997;32;20110;-75
2020/12/27 00:07:56;;;;;;;0.35;0.35;;;2.80;99.90;;;;;;4400071;32;20085;-73
2020/12/27 00:10:21;;;;;;;0.40;0.40;;;2.70;99.90;;;;;;4398260;32;20464;-75
2020/12/27 00:12:47;;;;;;;2.50;0.60;;;2.70;99.90;;;;;;4398177;32;20077;-75
2020/12/27 00:15:12;;;;;;;0.65;0.65;;;2.70;99.90;;;;;;4398874;32;20090;-75
2020/12/27 00:17:38;;;;;;;0.30;0.30;;;2.70;99.90;;;;;;4394795;32;20090;-74
2020/12/27 00:20:05;;;;;;;0.60;0.60;;;2.70;99.90;;;;;;4383305;32;20492;-75
2020/12/27 00:22:31;;;;;;;0.40;0.40;;;2.70;99.90;;;;;;4383198;32;20078;-74
2020/12/27 00:24:56;;;;;;;0.37;0.37;;;2.70;99.90;;;;;;4383279;32;20082;-73
2020/12/27 00:27:22;;;;;;;0.40;0.40;;;2.70;99.90;;;;;;4383578;32;20070;-75
2020/12/27 00:29:47;;;;;;;0.50;0.50;;;2.70;99.90;;;;;;4384154;32;20143;-75
2020/12/27 00:32:13;;;;;;;1.05;0.60;;;2.60;99.90;;;;;;4384766;32;20146;-75
2020/12/27 00:34:38;;;;;;;0.60;0.60;;;2.60;99.90;;;;;;4383174;32;20066;-75
2020/12/27 00:37:04;;;;;;;2.00;1.67;;;2.50;99.90;;;;;;4383267;32;20071;-74
2020/12/27 00:39:29;;;;;;;0.40;0.40;;;2.50;99.90;;;;;;4383104;32;20411;-75
2020/12/27 00:41:59;;;;;;;0.80;0.75;;;2.50;99.90;;;;;;4382556;32;20843;-75
2020/12/27 00:44:25;;;;;;;0.60;0.60;;;2.60;99.90;;;;;;4382755;32;20410;-74
2020/12/27 00:46:51;;;;;;;0.35;0.35;;;2.60;99.90;;;;;;4383816;32;20070;-75
2020/12/27 00:49:18;;;;;;;0.30;0.30;;;2.60;99.90;;;;;;4383278;32;20429;-75
2020/12/27 00:51:44;;;;;;;0.40;0.40;;;2.60;99.90;;;;;;4383378;32;20070;-75
2020/12/27 00:54:10;;;;;;;0.52;0.52;;;2.60;99.90;;;;;;4382382;32;20083;-75
2020/12/27 00:56:35;;;;;;;0.50;0.50;;;2.50;99.90;;;;;;4382644;32;20082;-75
2020/12/27 00:59:01;;;;;;;0.40;0.40;;;2.40;99.90;;;;;;4383291;32;20067;-75
2020/12/27 01:01:26;;;;;;;0.68;0.68;;;2.40;99.90;;;;;;4382905;32;20418;-75
2020/12/27 01:03:52;;;;;;;0.40;0.40;;;2.50;99.90;;;;;;4382578;32;20418;-75
2020/12/27 01:06:26;;;;;;;0.50;0.50;;;2.60;99.90;;;;;;4391536;32;20116;-75
2020/12/27 01:08:53;;;;;;;0.73;0.73;;;2.50;99.90;;;;;;4400688;32;20083;-75
2020/12/27 01:11:19;;;;;;;0.50;0.50;;;2.50;99.90;;;;;;4400286;32;20079;-75
2020/12/27 01:13:44;;;;;;;0.80;0.80;;;2.50;99.90;;;;;;4400490;32;20461;-75
2020/12/27 01:16:12;;;;;;;0.40;0.40;;;2.50;99.90;;;;;;4400772;32;20066;-75
2020/12/27 01:18:41;;;;;;;0.70;0.70;;;2.50;99.90;;;;;;4389599;32;20063;-74
2020/12/27 01:21:06;;;;;;;0.40;0.40;;;2.50;99.90;;;;;;4385641;32;20070;-74
2020/12/27 01:23:32;;;;;;;0.50;0.50;;;2.50;99.90;;;;;;4384592;32;20078;-75
2020/12/27 01:25:57;;;;;;;0.40;0.40;;;2.50;99.90;;;;;;4384658;32;20062;-75
2020/12/27 01:28:23;;;;;;;0.40;0.40;;;2.60;99.90;;;;;;4385535;32;20067;-75
2020/12/27 01:30:48;;;;;;;0.93;0.93;;;2.50;99.90;;;;;;4385405;32;20128;-75
2020/12/27 01:33:14;;;;;;;0.40;0.40;;;2.50;99.90;;;;;;4385387;32;20129;-75
2020/12/27 01:35:43;;;;;;;1.77;1.20;;;2.50;99.90;;;;;;4385283;32;20089;-75
2020/12/27 01:38:09;;;;;;;5.00;1.30;;;2.40;99.90;;;;;;4385195;32;20414;-75
2020/12/27 01:40:34;;;;;;;0.52;0.52;;;2.40;99.90;;;;;;4384200;32;20086;-74
2020/12/27 01:43:00;;;;;;;0.43;0.43;;;2.40;99.90;;;;;;4385872;32;20095;-75
2020/12/27 01:45:26;;;;;;;2.03;1.40;;;2.50;99.90;;;;;;4386014;32;20078;-75
2020/12/27 01:47:52;;;;;;;0.30;0.30;;;2.40;99.90;;;;;;4386131;32;20547;-75
2020/12/27 01:50:19;;;;;;;0.30;0.30;;;2.40;99.90;;;;;;4384989;32;20078;-75
2020/12/27 01:52:45;;;;;;;0.40;0.40;;;2.40;99.90;;;;;;4384382;32;20067;-75
2020/12/27 01:55:12;;;;;;;1.30;0.88;;;2.50;99.90;;;;;;4384794;32;20089;-74
2020/12/27 01:58:14;;;;;;;0.30;0.30;;;2.50;99.90;;;;;;4386260;32;20139;-75
2020/12/27 02:00:41;;;;;;;0.37;0.37;;;2.50;99.90;;;;;;4373698;32;20070;-75
2020/12/27 02:03:07;;;;;;;0.60;0.60;;;2.60;99.90;;;;;;4384721;32;20495;-74
2020/12/27 02:05:32;;;;;;;0.45;0.45;;;2.50;99.90;;;;;;4389273;32;20073;-74
2020/12/27 02:07:58;;;;;;;0.70;0.70;;;2.40;99.90;;;;;;4400411;32;20108;-75
2020/12/27 02:10:24;;;;;;;0.40;0.40;;;2.50;99.90;;;;;;4399251;32;20083;-74
2020/12/27 02:12:50;;;;;;;0.37;0.37;;;2.50;99.90;;;;;;4401080;32;20062;-75
2020/12/27 02:15:15;;;;;;;0.82;0.82;;;2.50;99.90;;;;;;4399241;32;20503;-75
2020/12/27 02:17:40;;;;;;;3.20;1.12;;;2.40;99.90;;;;;;4394981;32;20138;-75
2020/12/27 02:20:06;;;;;;;0.40;0.40;;;2.40;99.90;;;;;;4384251;32;20147;-75
2020/12/27 02:22:32;;;;;;;1.02;0.93;;;2.40;99.90;;;;;;4384103;32;20624;-75
2020/12/27 02:24:57;;;;;;;0.60;0.60;;;2.40;99.90;;;;;;4384394;32;20065;-75
2020/12/27 02:27:22;;;;;;;0.50;0.50;;;2.40;99.90;;;;;;4384812;32;20078;-75
2020/12/27 02:29:48;;;;;;;1.35;1.25;;;2.40;99.90;;;;;;4384435;32;20516;-75
2020/12/27 02:32:13;;;;;;;0.40;0.40;;;2.40;99.90;;;;;;4385022;32;20130;-75
2020/12/27 02:34:39;;;;;;;0.40;0.40;;;2.40;99.90;;;;;;4385724;32;20125;-75
2020/12/27 02:37:04;;;;;;;0.40;0.40;;;2.40;99.90;;;;;;4384527;32;20449;-75
2020/12/27 02:39:30;;;;;;;1.25;0.55;;;2.40;99.90;;;;;;4385044;32;20085;-75
2020/12/27 02:41:55;;;;;;;0.40;0.40;;;2.40;99.90;;;;;;4384968;32;20144;-75
2020/12/27 02:44:21;;;;;;;0.55;0.55;;;2.50;99.90;;;;;;4384739;32;20088;-75
2020/12/27 02:46:46;;;;;;;0.45;0.45;;;2.50;99.90;;;;;;4384641;32;20083;-75
2020/12/27 02:49:12;;;;;;;0.40;0.40;;;2.40;99.90;;;;;;4384784;32;20125;-75
2020/12/27 02:51:38;;;;;;;0.60;0.60;;;2.40;99.90;;;;;;4384203;32;20083;-75
2020/12/27 02:54:03;;;;;;;0.40;0.40;;;2.50;99.90;;;;;;4383774;32;20066;-75
2020/12/27 02:56:30;;;;;;;0.47;0.47;;;2.50;99.90;;;;;;4384713;32;20142;-75
2020/12/27 02:58:58;;;;;;;0.30;0.30;;;2.50;99.90;;;;;;4384185;32;20079;-75
2020/12/27 03:01:24;;;;;;;0.95;0.75;;;2.50;99.90;;;;;;4384806;32;20063;-75
2020/12/27 03:03:49;;;;;;;0.40;0.40;;;2.60;99.90;;;;;;4383701;32;20250;-75
2020/12/27 03:06:15;;;;;;;0.98;0.80;;;2.60;99.90;;;;;;4392042;32;20066;-75
2020/12/27 03:08:40;;;;;;;0.47;0.47;;;2.40;99.90;;;;;;4399647;32;20121;-75
2020/12/27 03:11:06;;;;;;;0.30;0.30;;;2.50;99.90;;;;;;4398825;32;20062;-75
2020/12/27 03:13:33;;;;;;;0.40;0.40;;;2.50;99.90;;;;;;4399490;32;20099;-75
2020/12/27 03:16:00;;;;;;;0.62;0.62;;;2.50;99.90;;;;;;4398829;32;20414;-75
2020/12/27 03:18:27;;;;;;;0.40;0.40;;;2.50;99.90;;;;;;4389608;32;20070;-75
2020/12/27 03:20:53;;;;;;;0.40;0.40;;;2.50;99.90;;;;;;4383828;32;20083;-75
2020/12/27 03:23:19;;;;;;;0.30;0.30;;;2.40;99.90;;;;;;4383842;32;20074;-74
2020/12/27 03:25:44;;;;;;;0.40;0.40;;;2.50;99.90;;;;;;4383352;32;20083;-74
2020/12/27 03:28:11;;;;;;;0.40;0.40;;;2.50;99.90;;;;;;4384850;32;20142;-75
2020/12/27 03:30:36;;;;;;;0.40;0.40;;;2.50;99.90;;;;;;4384086;32;20066;-75
2020/12/27 03:33:02;;;;;;;0.40;0.40;;;2.50;99.90;;;;;;4384747;32;20074;-75
2020/12/27 03:35:28;;;;;;;0.40;0.40;;;2.40;99.90;;;;;;4384703;32;20070;-75
2020/12/27 03:37:53;;;;;;;0.50;0.50;;;2.40;99.90;;;;;;4384167;32;20133;-75
2020/12/27 03:40:19;;;;;;;0.65;0.65;;;2.30;99.90;;;;;;4382955;32;20075;-74
2020/12/27 03:42:44;;;;;;;0.30;0.30;;;2.40;99.90;;;;;;4383773;32;20074;-75
2020/12/27 03:45:09;;;;;;;0.62;0.62;;;2.40;99.90;;;;;;4383493;32;20607;-75
2020/12/27 03:47:35;;;;;;;0.50;0.50;;;2.50;99.90;;;;;;4384905;32;20087;-75
2020/12/27 03:50:00;;;;;;;0.40;0.40;;;2.40;99.90;;;;;;4383251;32;20118;-75
2020/12/27 03:52:26;;;;;;;0.80;0.80;;;2.40;99.90;;;;;;4383360;32;20468;-75
2020/12/27 03:54:52;;;;;;;0.43;0.43;;;2.40;99.90;;;;;;4383497;32;20130;-75
2020/12/27 03:57:17;;;;;;;0.30;0.30;;;2.40;99.90;;;;;;4384283;32;20070;-75
2020/12/27 03:59:42;;;;;;;2.37;0.98;;;2.50;99.90;;;;;;4384355;32;20063;-75
2020/12/27 04:02:08;;;;;;;0.50;0.50;;;2.50;99.90;;;;;;4384628;32;20070;-75
2020/12/27 04:04:33;;;;;;;0.50;0.50;;;2.50;99.90;;;;;;4383255;32;20572;-75
2020/12/27 04:06:59;;;;;;;0.40;0.40;;;2.50;99.90;;;;;;4396129;32;20066;-75
2020/12/27 04:09:24;;;;;;;0.50;0.50;;;2.40;99.90;;;;;;4398650;32;20062;-75
2020/12/27 04:11:50;;;;;;;0.35;0.35;;;2.40;99.90;;;;;;4397815;32;20065;-75
2020/12/27 04:14:15;;;;;;;0.80;0.80;;;2.40;99.90;;;;;;4398002;32;20100;-75
2020/12/27 04:16:41;;;;;;;0.37;0.37;;;2.40;99.90;;;;;;4398334;32;20078;-75
2020/12/27 04:19:06;;;;;;;0.50;0.50;;;2.40;99.90;;;;;;4384527;32;20450;-75
2020/12/27 04:21:32;;;;;;;0.40;0.40;;;2.40;99.90;;;;;;4383878;32;20070;-75
2020/12/27 04:23:58;;;;;;;0.50;0.50;;;2.50;99.90;;;;;;4382339;32;20075;-75
2020/12/27 04:26:23;;;;;;;0.80;0.80;;;2.40;99.90;;;;;;4383591;32;20062;-75
2020/12/27 04:28:49;;;;;;;0.32;0.32;;;2.50;99.90;;;;;;4384486;32;20078;-75
2020/12/27 04:31:18;;;;;;;0.40;0.40;;;2.40;99.90;;;;;;4383182;32;20074;-75
2020/12/27 04:33:43;;;;;;;0.40;0.40;;;2.40;99.90;;;;;;4383194;32;20086;-75
2020/12/27 04:36:09;;;;;;;0.40;0.40;;;2.40;99.90;;;;;;4383728;32;20075;-75
2020/12/27 04:38:34;;;;;;;0.40;0.40;;;2.30;99.90;;;;;;4383125;32;20083;-74
2020/12/27 04:41:01;;;;;;;0.32;0.32;;;2.40;99.90;;;;;;4382731;32;20082;-75
2020/12/27 04:43:27;;;;;;;0.50;0.50;;;2.50;99.90;;;;;;4385402;32;20083;-74
2020/12/27 04:45:58;;;;;;;0.55;0.55;;;2.40;99.90;;;;;;4385697;32;20123;-75
2020/12/27 04:48:25;;;;;;;0.50;0.50;;;2.40;99.90;;;;;;4385770;32;20122;-74
2020/12/27 04:50:51;;;;;;;0.30;0.30;;;2.30;99.90;;;;;;4385813;32;20075;-75
2020/12/27 04:53:19;;;;;;;0.60;0.60;;;2.40;99.90;;;;;;4385039;32;20071;-75
2020/12/27 04:55:44;;;;;;;0.40;0.40;;;2.40;99.90;;;;;;4385130;32;20086;-75
2020/12/27 04:58:16;;;;;;;0.40;0.40;;;2.40;99.90;;;;;;4385859;32;20141;-75
2020/12/27 05:00:42;;;;;;;0.40;0.40;;;2.30;99.90;;;;;;4386298;32;20562;-75
2020/12/27 05:03:07;;;;;;;0.40;0.40;;;2.40;99.90;;;;;;4385959;32;20087;-75
2020/12/27 05:05:32;;;;;;;0.50;0.50;;;2.40;99.90;;;;;;4388781;32;20166;-75
2020/12/27 05:07:58;;;;;;;0.52;0.52;;;2.30;99.90;;;;;;4401412;32;20083;-75
2020/12/27 05:10:24;;;;;;;0.52;0.52;;;2.30;99.90;;;;;;4400639;32;20071;-74
2020/12/27 05:12:49;;;;;;;0.40;0.40;;;2.30;99.90;;;;;;4401267;32;20069;-75
2020/12/27 05:15:14;;;;;;;0.40;0.40;;;2.30;99.90;;;;;;4401670;32;20409;-74
2020/12/27 05:17:40;;;;;;;0.40;0.40;;;2.30;99.90;;;;;;4396459;32;20070;-75
2020/12/27 05:20:12;;;;;;;0.60;0.60;;;2.30;99.90;;;;;;4385284;32;20082;-75
2020/12/27 05:22:38;;;;;;;0.40;0.40;;;2.30;99.90;;;;;;4384839;32;20610;-75
2020/12/27 05:25:05;;;;;;;0.40;0.40;;;2.20;99.90;;;;;;4385180;32;20080;-74
2020/12/27 05:27:38;;;;;;;1.08;0.73;;;2.20;99.90;;;;;;4385400;32;20063;-75
2020/12/27 05:30:04;;;;;;;0.40;0.40;;;2.20;99.90;;;;;;4385155;32;20086;-75
2020/12/27 05:32:30;;;;;;;0.45;0.45;;;2.20;99.90;;;;;;4385850;32;20128;-75
2020/12/27 05:34:57;;;;;;;0.40;0.40;;;2.20;99.90;;;;;;4385672;32;20118;-75
2020/12/27 05:37:25;;;;;;;0.40;0.40;;;2.00;99.90;;;;;;4385575;32;20480;-75
2020/12/27 05:39:51;;;;;;;0.40;0.40;;;2.10;99.90;;;;;;4385266;32;20087;-75
2020/12/27 05:42:23;;;;;;;0.40;0.40;;;2.10;99.90;;;;;;4384356;32;20118;-75
2020/12/27 05:44:49;;;;;;;0.40;0.40;;;2.00;99.90;;;;;;4386077;32;20418;-75
2020/12/27 05:47:14;;;;;;;0.40;0.40;;;2.10;99.90;;;;;;4386279;32;20062;-75
2020/12/27 05:49:41;;;;;;;0.35;0.35;;;2.10;99.90;;;;;;4384649;32;20078;-75
2020/12/27 05:52:13;;;;;;;0.43;0.43;;;2.10;99.90;;;;;;4384853;32;20430;-74
2020/12/27 05:54:45;;;;;;;0.57;0.57;;;2.10;99.90;;;;;;4383680;32;20118;-75
2020/12/27 05:57:15;;;;;;;0.57;0.57;;;2.00;99.90;;;;;;4384746;32;20627;-74
2020/12/27 05:59:44;;;;;;;0.40;0.40;;;2.00;99.90;;;;;;4385708;32;20082;-75
2020/12/27 06:02:37;;;;;;;0.40;0.40;;;2.00;99.90;;;;;;4385942;32;20070;-75
2020/12/27 06:05:13;;;;;;;0.50;0.50;;;2.00;99.90;;;;;;4373958;32;20082;-75
2020/12/27 06:07:42;;;;;;;0.40;0.40;;;2.00;99.90;;;;;;4400037;32;20121;-75
2020/12/27 06:10:12;;;;;;;0.73;0.73;;;1.90;99.90;;;;;;4399980;32;20066;-75
2020/12/27 06:12:46;;;;;;;1.60;1.05;;;1.90;99.90;;;;;;4399596;32;20120;-75
2020/12/27 06:15:23;;;;;;;0.40;0.40;;;1.90;99.90;;;;;;4400228;32;20073;-75
2020/12/27 06:17:52;;;;;;;0.80;0.80;;;1.90;99.90;;;;;;4395063;32;20535;-75
2020/12/27 06:20:19;;;;;;;0.32;0.32;;;1.90;99.90;;;;;;4386306;32;20087;-75
2020/12/27 06:22:48;;;;;;;0.73;0.73;;;1.90;99.90;;;;;;4384756;32;20063;-75
2020/12/27 06:25:14;;;;;;;0.60;0.60;;;1.80;99.90;;;;;;4384303;32;20126;-74
2020/12/27 06:27:39;;;;;;;0.70;0.70;;;1.90;99.90;;;;;;4384953;32;20302;-74
2020/12/27 06:30:08;;;;;;;0.82;0.82;;;1.90;99.90;;;;;;4384705;32;20175;-75
2020/12/27 06:32:40;;;;;;;0.40;0.40;;;1.90;99.90;;;;;;4385225;32;20074;-75
2020/12/27 06:35:08;;;;;;;0.32;0.32;;;1.90;99.90;;;;;;4384879;32;20070;-75
2020/12/27 06:37:43;;;;;;;0.73;0.73;;;1.80;99.90;;;;;;4384641;32;20070;-75
2020/12/27 06:40:09;;;;;;;0.35;0.35;;;1.90;99.90;;;;;;4384672;32;20511;-75
2020/12/27 06:42:35;;;;;;;0.40;0.40;;;1.80;99.90;;;;;;4385276;32;20079;-75
2020/12/27 06:45:00;;;;;;;0.40;0.40;;;1.90;99.90;;;;;;4385302;32;20390;-74
2020/12/27 06:47:48;;;;;;;0.70;0.70;;;1.90;99.90;;;;;;4384812;32;20078;-75
2020/12/27 06:50:19;;;;;;;0.40;0.40;;;1.90;99.90;;;;;;4373806;32;20075;-75
2020/12/27 06:52:44;;;;;;;0.60;0.60;;;1.90;99.90;;;;;;4383728;32;20109;-74
2020/12/27 06:55:10;;;;;;;3.53;2.05;;;1.90;99.90;;;;;;4383616;32;20130;-74
2020/12/27 06:57:45;;;;;;;0.50;0.50;;;1.90;99.90;;;;;;4383877;32;20066;-75
2020/12/27 07:00:28;;;;;;;0.50;0.50;;;1.90;99.90;;;;;;4384678;32;20406;-74
2020/12/27 07:03:15;;;;;;;0.50;0.50;;;1.90;99.90;;;;;;4384277;32;20143;-74
2020/12/27 07:05:41;;;;;;;0.43;0.43;;;1.90;99.90;;;;;;4388264;32;20086;-75
2020/12/27 07:08:10;;;;;;;0.37;0.37;;;1.90;99.90;;;;;;4399072;32;20176;-75
2020/12/27 07:10:42;;;;;;;0.40;0.40;;;1.90;99.90;;;;;;4399234;32;20137;-75
2020/12/27 07:13:11;;;;;;;0.40;0.40;;;1.90;99.90;;;;;;4399838;32;20086;-75
2020/12/27 07:15:47;;;;;;;0.40;0.40;;;1.90;99.90;;;;;;4398793;32;20170;-74
2020/12/27 07:18:19;;;;;;;3.83;0.95;;;1.90;99.90;;;;;;4390706;32;20074;-75
2020/12/27 07:20:48;;;;;;;0.30;0.30;;;1.90;99.90;;;;;;4384273;32;20129;-75
2020/12/27 07:23:18;;;;;;;0.50;0.50;;;1.90;99.90;;;;;;4383681;32;20067;-74
2020/12/27 07:25:43;;;;;;;0.65;0.65;;;1.90;99.90;;;;;;4383671;32;20121;-74
2020/12/27 07:28:11;;;;;;;0.40;0.40;;;1.90;99.90;;;;;;4383955;32;20070;-75
2020/12/27 07:30:38;;;;;;;0.40;0.40;;;1.90;99.90;;;;;;4384105;32;20074;-74
2020/12/27 07:33:10;;;;;;;0.47;0.47;;;1.90;99.90;;;;;;4384348;32;20078;-75
2020/12/27 07:35:36;;;;;;;0.30;0.30;;;1.90;99.90;;;;;;4384411;32;20063;-74
2020/12/27 07:38:04;;;;;;;3.65;0.82;;;1.80;99.90;;;;;;4383785;32;20441;-75
2020/12/27 07:40:32;;;;;;;0.40;0.40;;;1.80;99.90;;;;;;4383177;32;20086;-75
2020/12/27 07:42:58;;;;;;;0.50;0.50;;;1.80;99.90;;;;;;4383878;32;20539;-74
2020/12/27 07:45:24;;;;;;;0.32;0.32;;;1.70;99.90;;;;;;4384271;32;20442;-74
2020/12/27 07:47:49;;;;;;;0.30;0.30;;;1.70;99.90;;;;;;4384915;32;20066;-75
2020/12/27 07:50:16;;;;;;;0.43;0.43;;;1.80;99.90;;;;;;4384738;32;20162;-75
2020/12/27 07:52:55;;;;;;;0.40;0.40;;;1.70;99.90;;;;;;4383602;32;20067;-75
2020/12/27 07:55:23;;;;;;;0.40;0.40;;;1.70;99.90;;;;;;4383509;32;20078;-74
2020/12/27 07:57:49;;;;;;;0.40;0.40;;;1.80;99.90;;;;;;4384153;32;20135;-74
2020/12/27 08:00:15;;;;;;;0.30;0.30;;;1.80;99.90;;;;;;4384916;32;20066;-75
2020/12/27 08:02:43;;;;;;;0.50;0.50;;;1.80;99.90;;;;;;4384365;32;20079;-74
2020/12/27 08:05:11;;;;;;;0.30;0.30;;;1.70;99.90;;;;;;4384469;32;20074;-75
2020/12/27 08:07:37;;;;;;;0.35;0.35;;;1.80;99.90;;;;;;4400202;32;20062;-75
2020/12/27 08:10:20;;;;;;;0.40;0.40;;;1.80;99.90;;;;;;4399154;32;20082;-75
2020/12/27 08:12:55;;;;;;;0.32;0.32;;;1.80;99.90;;;;;;4399574;32;20062;-75
2020/12/27 08:15:21;;;;;;;2.60;0.68;;;1.90;99.90;;;;;;4400065;32;20118;-74
2020/12/27 08:17:52;;;;;;;0.40;0.40;;;1.80;99.90;;;;;;4394151;32;20406;-75
2020/12/27 08:20:18;;;;;;;0.40;0.40;;;1.80;99.90;;;;;;4383602;32;20442;-74
2020/12/27 08:22:44;;;;;;;0.30;0.30;;;1.80;99.90;;;;;;4384079;32;20075;-74
2020/12/27 08:25:11;;;;;;;0.40;0.40;;;1.80;99.90;;;;;;4383388;32;20091;-74
2020/12/27 08:27:36;;;;;;;0.40;0.40;;;1.90;99.90;;;;;;4383825;32;20499;-74
2020/12/27 08:30:04;;;;;;;0.50;0.50;;;1.90;99.90;;;;;;4384686;32;20129;-74
2020/12/27 08:32:29;;;;;;;0.40;0.40;;;2.00;99.90;;;;;;4383615;32;20080;-74
2020/12/27 08:34:54;;;;;;;0.52;0.52;;;2.00;99.90;;;;;;4384262;32;20070;-74
2020/12/27 08:37:21;;;;;;;0.65;0.65;;;2.00;99.90;;;;;;4384024;32;20070;-75
2020/12/27 08:39:53;;;;;;;1.87;1.02;;;2.00;99.90;;;;;;4383548;32;20560;-75
2020/12/27 08:42:27;;;;;;;0.50;0.50;;;2.00;99.90;;;;;;4379929;32;100682;-75
2020/12/27 08:45:17;;;;;;;0.40;0.40;;;1.90;99.90;;;;;;4386473;32;20078;-74
2020/12/27 08:47:53;;;;;;;0.82;0.57;;;1.90;99.90;;;;;;4398439;32;20062;-75
2020/12/27 08:50:24;;;;;;;0.40;0.40;;;2.00;99.90;;;;;;4398421;32;20094;-74
2020/12/27 08:52:55;;;;;;;0.40;0.40;;;2.00;99.90;;;;;;4392575;32;20063;-75
2020/12/27 08:55:25;;;;;;;0.55;0.55;;;2.00;99.90;;;;;;4382668;32;20070;-75
2020/12/27 08:57:51;;;;;;;0.40;0.40;;;2.00;99.90;;;;;;4383003;32;20446;-74
2020/12/27 09:00:18;;;;;;;0.40;0.40;;;2.10;99.90;;;;;;4383445;32;20070;-75
2020/12/27 09:02:54;;;;;;;0.50;0.50;;;2.10;99.90;;;;;;4382990;32;20070;-75
2020/12/27 09:05:19;;;;;;;0.32;0.32;;;2.10;99.90;;;;;;4385643;32;20086;-75
2020/12/27 09:07:46;;;;;;;0.40;0.40;;;2.10;99.90;;;;;;4398945;32;20070;-74
2020/12/27 09:10:17;;;;;;;0.30;0.30;;;2.00;99.90;;;;;;4397334;32;20162;-75
2020/12/27 09:13:00;;;;;;;0.50;0.50;;;2.10;99.90;;;;;;4383980;32;20393;-74
2020/12/27 09:15:29;;;;;;;0.50;0.50;;;2.30;99.90;;;;;;4369053;32;20070;-74
2020/12/27 09:17:59;;;;;;;0.30;0.30;;;2.30;99.90;;;;;;4389276;32;20082;-75
2020/12/27 09:20:25;;;;;;;0.35;0.35;;;2.20;99.90;;;;;;4398616;32;20081;-75
2020/12/27 09:22:51;;;;;;;0.40;0.40;;;2.20;99.90;;;;;;4397490;32;20070;-75
2020/12/27 09:25:18;;;;;;;0.30;0.30;;;2.10;99.90;;;;;;4397101;32;20069;-73
2020/12/27 09:27:45;;;;;;;0.30;0.30;;;2.10;99.90;;;;;;4398496;32;20402;-74
2020/12/27 09:30:14;;;;;;;0.40;0.40;;;2.10;99.90;;;;;;4401551;32;20066;-74
2020/12/27 09:32:39;;;;;;;1.27;1.05;;;2.10;99.90;;;;;;4401768;32;20061;-74
2020/12/27 09:35:05;;;;;;;0.40;0.40;;;2.10;99.90;;;;;;4400685;32;20456;-74
2020/12/27 09:37:33;;;;;;;0.47;0.47;;;2.10;99.90;;;;;;4400715;32;20086;-74
2020/12/27 09:40:00;;;;;;;0.40;0.40;;;2.10;99.90;;;;;;4401541;32;20086;-74
2020/12/27 09:42:28;;;;;;;0.30;0.30;;;2.20;99.90;;;;;;4400033;32;20065;-74
2020/12/27 09:44:56;;;;;;;0.60;0.60;;;2.20;99.90;;;;;;4400348;32;20125;-74
2020/12/27 09:47:25;;;;;;;0.30;0.30;;;2.10;99.90;;;;;;4400944;32;20498;-74
2020/12/27 09:50:07;;;;;;;0.30;0.30;;;2.20;99.90;;;;;;4399992;32;20074;-74
2020/12/27 09:52:48;;;;;;;0.37;0.37;;;2.20;99.90;;;;;;4400715;32;20446;-74
2020/12/27 09:55:14;;;;;;;0.40;0.40;;;2.20;99.90;;;;;;4401347;32;20121;-75
2020/12/27 09:57:41;;;;;;;0.40;0.40;;;2.20;99.90;;;;;;4400813;32;20073;-75
2020/12/27 10:00:07;;;;;;;0.50;0.50;;;2.30;99.90;;;;;;4400380;32;20086;-75
2020/12/27 10:02:33;;;;;;;0.40;0.40;;;2.20;99.90;;;;;;4400457;32;20569;-75
2020/12/27 10:04:58;;;;;;;0.43;0.43;;;2.20;99.90;;;;;;4400613;32;20514;-75
2020/12/27 10:07:24;;;;;;;0.40;0.40;;;2.20;99.90;;;;;;4385725;32;20086;-75
2020/12/27 10:09:50;;;;;;;0.30;0.30;;;2.20;99.90;;;;;;4385358;32;20575;-75
2020/12/27 10:12:16;;;;;;;0.68;0.57;;;2.20;99.90;;;;;;4398528;32;20059;-74
2020/12/27 10:14:41;;;;;;;1.12;1.10;;;2.10;99.90;;;;;;4400431;32;20452;-75
2020/12/27 10:17:07;;;;;;;0.40;0.40;;;2.10;99.90;;;;;;4399143;32;20130;-75
2020/12/27 10:19:33;;;;;;;0.40;0.40;;;2.20;99.90;;;;;;4385435;32;20074;-75
2020/12/27 10:21:59;;;;;;;0.62;0.62;;;2.30;99.90;;;;;;4384566;32;20066;-74
2020/12/27 10:24:26;;;;;;;0.40;0.40;;;2.20;99.90;;;;;;4384900;32;20125;-74
2020/12/27 10:26:53;;;;;;;0.40;0.40;;;2.20;99.90;;;;;;4384761;32;20082;-75
2020/12/27 10:29:19;;;;;;;0.40;0.40;;;2.30;99.90;;;;;;4385906;32;20121;-75
2020/12/27 10:32:02;;;;;;;0.40;0.40;;;2.40;99.90;;;;;;4385770;32;20075;-75
2020/12/27 10:34:28;;;;;;;0.50;0.50;;;2.30;99.90;;;;;;4384789;32;20074;-75
2020/12/27 10:36:55;;;;;;;0.40;0.40;;;2.30;99.90;;;;;;4384769;32;20066;-74
2020/12/27 10:39:21;;;;;;;0.30;0.30;;;2.30;99.90;;;;;;4384786;32;20456;-74
2020/12/27 10:41:48;;;;;;;2.30;0.82;;;2.30;99.90;;;;;;4384044;32;20082;-74
2020/12/27 10:44:15;;;;;;;0.40;0.40;;;2.30;99.90;;;;;;4385256;32;20070;-75
2020/12/27 10:46:41;;;;;;;0.40;0.40;;;2.30;99.90;;;;;;4385984;32;20695;-74
2020/12/27 10:49:07;;;;;;;0.40;0.40;;;2.40;99.90;;;;;;4384476;32;20066;-75
2020/12/27 10:51:34;;;;;;;0.50;0.50;;;2.40;99.90;;;;;;4384557;32;20091;-75
2020/12/27 10:54:00;;;;;;;0.50;0.50;;;2.30;99.90;;;;;;4384274;32;20092;-75
2020/12/27 10:56:25;;;;;;;0.57;0.57;;;2.40;99.90;;;;;;4383806;32;20070;-75
2020/12/27 10:58:51;;;;;;;0.40;0.40;;;2.50;99.90;;;;;;4384365;32;20129;-75
2020/12/27 11:01:16;;;;;;;0.60;0.60;;;2.50;99.90;;;;;;4384526;32;20082;-74
2020/12/27 11:03:42;;;;;;;0.30;0.30;;;2.50;99.90;;;;;;4384330;32;20070;-75
2020/12/27 11:06:07;;;;;;;0.50;0.50;;;2.50;99.90;;;;;;4391378;32;20079;-75
2020/12/27 11:08:33;;;;;;;0.30;0.30;;;2.50;99.90;;;;;;4399728;32;20544;-75
2020/12/27 11:10:59;;;;;;;0.40;0.40;;;2.40;99.90;;;;;;4392472;32;20074;-74
2020/12/27 11:13:25;;;;;;;0.60;0.60;;;2.50;99.90;;;;;;4384736;32;20071;-74
2020/12/27 11:15:50;;;;;;;0.40;0.40;;;2.40;99.90;;;;;;4385256;32;20066;-74
2020/12/27 11:18:16;;;;;;;0.30;0.30;;;2.50;99.90;;;;;;4392522;32;20550;-74
2020/12/27 11:20:41;;;;;;;0.70;0.70;;;2.50;99.90;;;;;;4399408;32;20083;-75
2020/12/27 11:23:07;;;;;;;0.45;0.45;;;2.50;99.90;;;;;;4398491;32;20074;-75
2020/12/27 11:25:33;;;;;;;0.30;0.30;;;2.40;99.90;;;;;;4398746;32;20133;-74
2020/12/27 11:27:58;;;;;;;0.40;0.40;;;2.50;99.90;;;;;;4399293;32;20081;-75
2020/12/27 11:30:24;;;;;;;0.30;0.30;;;2.50;99.90;;;;;;4398943;32;20090;-75
2020/12/27 11:32:50;;;;;;;0.60;0.60;;;2.50;99.90;;;;;;4398774;32;20078;-75
2020/12/27 11:35:15;;;;;;;0.57;0.50;;;2.50;99.90;;;;;;4400049;32;20061;-74
2020/12/27 11:37:40;;;;;;;0.40;0.40;;;2.50;99.90;;;;;;4398842;32;20518;-75
2020/12/27 11:40:06;;;;;;;0.30;0.30;;;2.50;99.90;;;;;;4400172;32;20117;-75
2020/12/27 11:42:32;;;;;;;0.77;0.77;;;2.50;99.90;;;;;;4399180;32;20481;-75
2020/12/27 11:44:57;;;;;;;0.45;0.45;;;2.40;99.90;;;;;;4399976;32;20066;-75
2020/12/27 11:47:22;;;;;;;0.98;0.95;;;2.50;99.90;;;;;;4399332;32;20127;-75
2020/12/27 11:49:48;;;;;;;0.40;0.40;;;2.50;99.90;;;;;;4398640;32;20069;-75
2020/12/27 11:52:13;;;;;;;0.32;0.32;;;2.50;99.90;;;;;;4397476;32;20418;-74
2020/12/27 11:54:39;;;;;;;0.40;0.40;;;2.50;99.90;;;;;;4398846;32;20062;-74
2020/12/27 11:57:06;;;;;;;0.43;0.43;;;2.50;99.90;;;;;;4398660;32;20086;-75
2020/12/27 11:59:33;;;;;;;0.30;0.30;;;2.50;99.90;;;;;;4398948;32;20058;-75
2020/12/27 12:01:58;;;;;;;0.82;0.60;;;2.60;99.90;;;;;;4398997;32;20098;-75
2020/12/27 12:04:24;;;;;;;0.52;0.52;;;2.60;99.90;;;;;;4398792;32;20066;-75
2020/12/27 12:06:49;;;;;;;1.25;0.98;;;2.60;99.90;;;;;;4398577;32;20061;-74
2020/12/27 12:09:14;;;;;;;0.30;0.30;;;2.60;99.90;;;;;;4399475;32;20492;-75
2020/12/27 12:11:41;;;;;;;0.40;0.40;;;2.70;99.90;;;;;;4387678;32;20083;-74
2020/12/27 12:14:07;;;;;;;0.30;0.30;;;2.70;99.90;;;;;;4383498;32;20495;-74
2020/12/27 12:16:33;;;;;;;0.30;0.30;;;2.70;99.90;;;;;;4383654;32;20496;-74
2020/12/27 12:19:01;;;;;;;0.30;0.30;;;2.70;99.90;;;;;;4396546;32;20062;-74
2020/12/27 12:21:26;;;;;;;0.30;0.30;;;2.80;99.90;;;;;;4399633;32;20153;-75
2020/12/27 12:23:52;;;;;;;0.35;0.35;;;2.90;99.90;;;;;;4397688;32;20074;-74
2020/12/27 12:26:19;;;;;;;0.60;0.60;;;2.90;99.90;;;;;;4398282;32;20069;-74
2020/12/27 12:28:45;;;;;;;0.30;0.30;;;2.90;99.90;;;;;;4399457;32;20154;-73
2020/12/27 12:31:11;;;;;;;0.60;0.60;;;3.00;99.90;;;;;;4398808;32;20092;-74
2020/12/27 12:33:37;;;;;;;0.40;0.40;;;3.00;99.90;;;;;;4398357;32;20078;-74
2020/12/27 12:36:03;;;;;;;0.30;0.30;;;3.00;99.90;;;;;;4398072;32;20149;-74
2020/12/27 12:38:28;;;;;;;0.30;0.30;;;3.00;99.90;;;;;;4398605;32;20062;-74
2020/12/27 12:40:53;;;;;;;0.40;0.40;;;3.00;99.90;;;;;;4398003;32;20073;-74
2020/12/27 12:43:19;;;;;;;0.30;0.30;;;3.00;99.90;;;;;;4398327;32;20094;-74
2020/12/27 12:45:45;;;;;;;0.40;0.40;;;3.10;99.90;;;;;;4398213;32;20084;-74
2020/12/27 12:48:10;;;;;;;0.30;0.30;;;3.10;99.90;;;;;;4398667;32;20079;-74
2020/12/27 12:50:36;;;;;;;0.52;0.52;;;3.20;99.90;;;;;;4397753;32;20410;-74
2020/12/27 12:53:01;;;;;;;0.40;0.40;;;3.20;99.90;;;;;;4397801;32;20118;-74
2020/12/27 12:55:27;;;;;;;0.30;0.30;;;3.20;99.90;;;;;;4397657;32;20090;-74
2020/12/27 12:57:52;;;;;;;0.50;0.50;;;3.20;99.90;;;;;;4397264;32;20090;-74